Time;durP1;ratioP1;P1;durP2;ratioP2;P2;SDS_P1;SDS_P2;PMS_P1;PMS_P2;Temp;Humidity;BMP_temperature;BMP_pressure;BME280_temperature;BME280_humidity;BME280_pressure;Samples;Min_cycle;Max_cycle;Signal;HPM_P1;HPM_P2
2022/04/11 00:01:15;;;;;;;;;;;21.80;99.90;;;;;;4868306;29;19917;-74
2022/04/11 00:03:41;;;;;;;;;;;21.90;99.90;;;;;;4862781;29;19955;-74
2022/04/11 00:06:08;;;;;;;;;;;22.00;99.90;;;;;;4864840;29;20317;-75
2022/04/11 00:08:35;;;;;;;;;;;22.10;99.90;;;;;;4884872;29;19912;-74
2022/04/11 00:11:01;;;;;;;;;;;22.20;99.90;;;;;;4882594;29;19912;-75
2022/04/11 00:13:28;;;;;;;;;;;22.20;99.90;;;;;;4882333;29;19919;-75
2022/04/11 00:15:55;;;;;;;;;;;22.30;99.90;;;;;;4882203;29;19916;-75
2022/04/11 00:18:21;;;;;;;;;;;22.40;99.90;;;;;;4882088;29;19920;-74
2022/04/11 00:20:48;;;;;;;;;;;22.40;99.90;;;;;;4882097;29;19912;-74
2022/04/11 00:23:15;;;;;;;;;;;22.50;99.90;;;;;;4865598;29;19968;-75
2022/04/11 00:25:41;;;;;;;;;;;22.60;99.90;;;;;;4881803;29;19912;-74
2022/04/11 00:28:08;;;;;;;;;;;22.60;99.90;;;;;;4881838;29;20006;-73
2022/04/11 00:30:35;;;;;;;;;;;22.60;99.90;;;;;;4882178;29;19919;-73
2022/04/11 00:33:02;;;;;;;;;;;22.60;99.90;;;;;;4881813;29;19912;-74
2022/04/11 00:35:29;;;;;;;;;;;22.70;99.90;;;;;;4881792;29;19916;-75
2022/04/11 00:37:55;;;;;;;;;;;22.60;99.90;;;;;;4881585;29;19927;-74
2022/04/11 00:40:22;;;;;;;;;;;22.70;99.90;;;;;;4881945;29;19919;-75
2022/04/11 00:42:49;;;;;;;;;;;22.80;99.90;;;;;;4881693;29;19918;-74
2022/04/11 00:45:16;;;;;;;;;;;22.80;99.90;;;;;;4881471;29;19912;-75
2022/04/11 00:47:45;;;;;;;;;;;22.90;99.90;;;;;;4881353;29;19922;-75
2022/04/11 00:50:12;;;;;;;;;;;22.90;99.90;;;;;;4881738;29;19919;-76
2022/04/11 00:52:50;;;;;;;;;;;22.90;99.90;;;;;;4875969;29;19920;-76
2022/04/11 00:55:19;;;;;;;;;;;23.00;99.90;;;;;;4878071;29;19959;-76
2022/04/11 00:57:46;;;;;;;;;;;23.00;99.90;;;;;;4881224;29;19920;-76
2022/04/11 01:00:13;;;;;;;;;;;23.10;99.90;;;;;;4881157;29;19911;-75
2022/04/11 01:02:40;;;;;;;;;;;23.10;99.90;;;;;;4881220;29;20388;-76
2022/04/11 01:05:07;;;;;;;;;;;23.20;99.90;;;;;;4881689;29;19912;-76
2022/04/11 01:07:35;;;;;;;;;;;23.30;99.90;;;;;;4881320;29;19919;-75
2022/04/11 01:10:03;;;;;;;;;;;23.40;99.90;;;;;;4881372;29;19919;-75
2022/04/11 01:12:30;;;;;;;;;;;23.50;99.90;;;;;;4881228;29;19912;-76
2022/04/11 01:14:57;;;;;;;;;;;23.70;99.90;;;;;;4881207;29;19916;-75
2022/04/11 01:17:36;;;;;;;;;;;24.00;99.90;;;;;;4881467;29;19920;-76
2022/04/11 01:20:07;;;;;;;;;;;24.30;99.90;;;;;;4881128;29;20394;-76
2022/04/11 01:22:33;;;;;;;;;;;24.60;99.90;;;;;;4880902;29;20265;-75
2022/04/11 01:25:01;;;;;;;;;;;24.60;99.90;;;;;;4880953;29;19970;-75
2022/04/11 01:27:29;;;;;;;;;;;24.70;99.90;;;;;;4881225;29;19916;-76
2022/04/11 01:29:55;;;;;;;;;;;24.70;99.90;;;;;;4881065;29;19919;-76
2022/04/11 01:32:22;;;;;;;;;;;24.70;99.90;;;;;;4880932;29;19998;-76
2022/04/11 01:34:49;;;;;;;;;;;24.70;99.90;;;;;;4882190;29;19921;-76
2022/04/11 01:37:15;;;;;;;;;;;24.60;99.90;;;;;;4883608;29;19919;-75
2022/04/11 01:39:42;;;;;;;;;;;24.50;99.90;;;;;;4881427;29;19963;-75
2022/04/11 01:42:09;;;;;;;;;;;24.50;99.90;;;;;;4882206;29;20002;-75
2022/04/11 01:44:35;;;;;;;;;;;24.50;99.90;;;;;;4880748;29;19995;-75
2022/04/11 01:47:02;;;;;;;;;;;24.50;99.90;;;;;;4880599;29;20408;-75
2022/04/11 01:49:28;;;;;;;;;;;24.50;99.90;;;;;;4880408;29;19912;-75
2022/04/11 01:51:55;;;;;;;;;;;24.40;99.90;;;;;;4880327;29;19994;-75
2022/04/11 01:54:22;;;;;;;;;;;24.40;99.90;;;;;;4880455;29;19912;-75
2022/04/11 01:56:49;;;;;;;;;;;24.40;99.90;;;;;;4880426;29;19916;-75
2022/04/11 01:59:16;;;;;;;;;;;24.30;99.90;;;;;;4880332;29;19912;-75
2022/04/11 02:01:43;;;;;;;;;;;24.30;99.90;;;;;;4880199;29;19912;-75
2022/04/11 02:04:10;;;;;;;;;;;24.40;99.90;;;;;;4879960;29;19924;-75
2022/04/11 02:06:37;;;;;;;;;;;24.40;99.90;;;;;;4880088;29;20278;-75
2022/04/11 02:09:04;;;;;;;;;;;24.40;99.90;;;;;;4877879;29;19916;-75
2022/04/11 02:11:34;;;;;;;;;;;24.50;99.90;;;;;;4870233;29;21345;-75
2022/04/11 02:14:01;;;;;;;;;;;24.40;99.90;;;;;;4878862;29;20018;-75
2022/04/11 02:16:27;;;;;;;;;;;24.50;99.90;;;;;;4879417;29;19920;-75
2022/04/11 02:18:54;;;;;;;;;;;24.60;99.90;;;;;;4879255;29;19915;-75
2022/04/11 02:21:21;;;;;;;;;;;24.60;99.90;;;;;;4879239;29;19959;-75
2022/04/11 02:23:47;;;;;;;;;;;24.60;99.90;;;;;;4879511;29;19994;-75
2022/04/11 02:26:14;;;;;;;;;;;24.70;99.90;;;;;;4879801;29;19919;-75
2022/04/11 02:28:41;;;;;;;;;;;24.60;99.90;;;;;;4880214;29;19922;-75
2022/04/11 02:31:07;;;;;;;;;;;24.60;99.90;;;;;;4880092;29;19912;-75
2022/04/11 02:33:34;;;;;;;;;;;24.70;99.90;;;;;;4879393;29;19912;-75
2022/04/11 02:36:01;;;;;;;;;;;24.70;99.90;;;;;;4879783;29;19923;-75
2022/04/11 02:38:27;;;;;;;;;;;24.80;99.90;;;;;;4879670;29;19920;-75
2022/04/11 02:40:54;;;;;;;;;;;24.80;99.90;;;;;;4879684;29;19912;-75
2022/04/11 02:43:20;;;;;;;;;;;24.80;99.90;;;;;;4879869;29;19932;-75
2022/04/11 02:45:47;;;;;;;;;;;24.80;99.90;;;;;;4879349;29;19919;-75
2022/04/11 02:48:14;;;;;;;;;;;24.80;99.90;;;;;;4879464;29;19912;-75
2022/04/11 02:50:41;;;;;;;;;;;24.90;99.90;;;;;;4879559;29;20071;-75
2022/04/11 02:53:08;;;;;;;;;;;24.80;99.90;;;;;;4879620;29;20352;-75
2022/04/11 02:55:34;;;;;;;;;;;24.60;99.90;;;;;;4879425;29;19998;-75
2022/04/11 02:58:01;;;;;;;;;;;24.80;99.90;;;;;;4879294;29;19923;-75
2022/04/11 03:00:28;;;;;;;;;;;24.70;99.90;;;;;;4879515;29;20364;-75
2022/04/11 03:02:54;;;;;;;;;;;24.90;99.90;;;;;;4879105;29;19924;-75
2022/04/11 03:05:21;;;;;;;;;;;24.80;99.90;;;;;;4879358;29;19924;-75
2022/04/11 03:07:48;;;;;;;;;;;24.80;99.90;;;;;;4879077;29;19960;-75
2022/04/11 03:10:14;;;;;;;;;;;24.90;99.90;;;;;;4879323;29;19912;-75
2022/04/11 03:12:41;;;;;;;;;;;25.00;99.90;;;;;;4879442;29;19962;-75
2022/04/11 03:15:08;;;;;;;;;;;24.80;99.90;;;;;;4879424;29;19912;-75
2022/04/11 03:17:35;;;;;;;;;;;24.90;99.90;;;;;;4862170;29;19959;-75
2022/04/11 03:20:01;;;;;;;;;;;25.10;99.90;;;;;;4879398;29;19960;-75
2022/04/11 03:22:29;;;;;;;;;;;25.30;99.90;;;;;;4879190;29;19919;-75
2022/04/11 03:24:55;;;;;;;;;;;25.40;99.90;;;;;;4879146;29;19968;-74
2022/04/11 03:27:22;;;;;;;;;;;25.60;99.90;;;;;;4883085;29;20018;-74
2022/04/11 03:29:48;;;;;;;;;;;26.00;99.90;;;;;;4882706;29;19912;-74
2022/04/11 03:32:15;;;;;;;;;;;26.10;99.90;;;;;;4882822;29;19912;-73
2022/04/11 03:34:42;;;;;;;;;;;26.20;99.90;;;;;;4882598;29;20253;-74
2022/04/11 03:37:08;;;;;;;;;;;26.20;99.90;;;;;;4882736;29;19920;-74
2022/04/11 03:39:35;;;;;;;;;;;26.10;99.90;;;;;;4882234;29;19959;-74
2022/04/11 03:42:02;;;;;;;;;;;26.20;99.90;;;;;;4882580;29;19912;-74
2022/04/11 03:44:28;;;;;;;;;;;26.30;99.90;;;;;;4882530;29;19912;-74
2022/04/11 03:46:55;;;;;;;;;;;26.30;99.90;;;;;;4882399;29;19919;-74
2022/04/11 03:49:21;;;;;;;;;;;26.40;99.90;;;;;;4882411;29;20020;-75
2022/04/11 03:51:48;;;;;;;;;;;26.40;99.50;;;;;;4882382;29;19951;-74
2022/04/11 03:54:15;;;;;;;;;;;26.50;98.60;;;;;;4882408;29;19911;-74
2022/04/11 03:56:42;;;;;;;;;;;26.50;99.30;;;;;;4882343;29;19960;-74
2022/04/11 03:59:08;;;;;;;;;;;26.50;99.20;;;;;;4882465;29;19916;-74
2022/04/11 04:01:35;;;;;;;;;;;26.30;99.50;;;;;;4881870;29;19935;-74
2022/04/11 04:04:02;;;;;;;;;;;26.30;99.50;;;;;;4882070;29;19940;-74
2022/04/11 04:06:29;;;;;;;;;;;26.30;99.00;;;;;;4882213;29;19919;-74
2022/04/11 04:08:55;;;;;;;;;;;26.30;98.90;;;;;;4882248;29;19984;-75
2022/04/11 04:11:22;;;;;;;;;;;26.30;99.30;;;;;;4882340;29;19912;-75
2022/04/11 04:13:49;;;;;;;;;;;26.20;99.90;;;;;;4865301;29;20011;-74
2022/04/11 04:16:16;;;;;;;;;;;26.00;99.90;;;;;;4882032;29;19968;-74
2022/04/11 04:18:42;;;;;;;;;;;26.10;99.90;;;;;;4881995;29;19927;-74
2022/04/11 04:21:09;;;;;;;;;;;26.30;99.90;;;;;;4881835;29;19947;-75
2022/04/11 04:23:36;;;;;;;;;;;26.50;99.90;;;;;;4878700;29;19915;-75
2022/04/11 04:26:03;;;;;;;;;;;26.60;99.90;;;;;;4872969;29;19943;-74
2022/04/11 04:28:29;;;;;;;;;;;26.30;99.90;;;;;;4882012;29;19968;-74
2022/04/11 04:30:56;;;;;;;;;;;26.00;99.90;;;;;;4881784;29;19912;-75
2022/04/11 04:33:23;;;;;;;;;;;25.70;99.90;;;;;;4881855;29;19912;-74
2022/04/11 04:35:49;;;;;;;;;;;25.50;99.90;;;;;;4881231;29;20010;-75
2022/04/11 04:38:16;;;;;;;;;;;25.30;99.90;;;;;;4881301;29;19920;-75
2022/04/11 04:40:43;;;;;;;;;;;25.20;99.90;;;;;;4881724;29;19912;-75
2022/04/11 04:43:09;;;;;;;;;;;25.10;99.90;;;;;;4881460;29;20347;-74
2022/04/11 04:45:37;;;;;;;;;;;25.10;99.90;;;;;;4881469;29;19911;-74
2022/04/11 04:48:04;;;;;;;;;;;25.00;99.90;;;;;;4881186;29;19912;-74
2022/04/11 04:50:31;;;;;;;;;;;25.00;99.90;;;;;;4881290;29;19912;-74
2022/04/11 04:52:58;;;;;;;;;;;25.00;99.90;;;;;;4881411;29;20015;-74
2022/04/11 04:55:24;;;;;;;;;;;25.10;99.90;;;;;;4881143;29;19918;-74
2022/04/11 04:57:51;;;;;;;;;;;25.10;99.90;;;;;;4880642;29;20459;-75
2022/04/11 05:00:18;;;;;;;;;;;25.20;99.90;;;;;;4881067;29;19958;-75
2022/04/11 05:02:44;;;;;;;;;;;25.30;99.90;;;;;;4880995;29;19919;-75
2022/04/11 05:05:12;;;;;;;;;;;25.30;99.90;;;;;;4881344;29;19916;-74
2022/04/11 05:07:39;;;;;;;;;;;25.40;99.90;;;;;;4880533;29;19943;-74
2022/04/11 05:10:06;;;;;;;;;;;25.40;99.90;;;;;;4880820;29;19912;-74
2022/04/11 05:12:46;;;;;;;;;;;25.40;99.90;;;;;;4880950;29;20011;-74
2022/04/11 05:15:13;;;;;;;;;;;25.30;99.90;;;;;;4881069;29;19912;-74
2022/04/11 05:17:40;;;;;;;;;;;25.30;99.90;;;;;;4880496;29;19926;-75
2022/04/11 05:20:07;;;;;;;;;;;25.30;99.90;;;;;;4877713;29;19937;-74
2022/04/11 05:22:34;;;;;;;;;;;25.10;99.90;;;;;;4864232;29;19947;-74
2022/04/11 05:25:01;;;;;;;;;;;25.10;99.90;;;;;;4864095;29;20307;-75
2022/04/11 05:27:27;;;;;;;;;;;24.90;99.90;;;;;;4881099;29;20010;-74
2022/04/11 05:29:54;;;;;;;;;;;24.80;99.90;;;;;;4880624;29;19954;-75
2022/04/11 05:32:21;;;;;;;;;;;24.80;99.90;;;;;;4880464;29;19972;-75
2022/04/11 05:34:48;;;;;;;;;;;24.70;99.90;;;;;;4863939;29;20340;-74
2022/04/11 05:37:14;;;;;;;;;;;24.60;99.90;;;;;;4880580;29;20249;-74
2022/04/11 05:39:41;;;;;;;;;;;24.50;99.90;;;;;;4880428;29;19919;-75
2022/04/11 05:42:08;;;;;;;;;;;24.60;99.90;;;;;;4880608;29;19912;-75
2022/04/11 05:44:35;;;;;;;;;;;24.50;99.90;;;;;;4880431;29;19916;-75
2022/04/11 05:47:01;;;;;;;;;;;24.50;99.90;;;;;;4880351;29;19959;-75
2022/04/11 05:49:28;;;;;;;;;;;24.50;99.90;;;;;;4879784;29;19912;-75
2022/04/11 05:51:55;;;;;;;;;;;24.50;99.90;;;;;;4880169;29;19919;-75
2022/04/11 05:54:21;;;;;;;;;;;24.50;99.90;;;;;;4880367;29;19912;-75
2022/04/11 05:56:48;;;;;;;;;;;24.30;99.90;;;;;;4880135;29;19934;-75
2022/04/11 05:59:15;;;;;;;;;;;24.30;99.90;;;;;;4880359;29;19912;-75
2022/04/11 06:01:41;;;;;;;;;;;24.30;99.90;;;;;;4879657;29;20010;-74
2022/04/11 06:04:08;;;;;;;;;;;24.30;99.90;;;;;;4879849;29;19924;-74
2022/04/11 06:06:35;;;;;;;;;;;24.10;99.90;;;;;;4879901;29;19912;-74
2022/04/11 06:09:03;;;;;;;;;;;24.00;99.90;;;;;;4879936;29;19911;-74
2022/04/11 06:11:30;;;;;;;;;;;23.90;99.90;;;;;;4880012;29;20049;-75
2022/04/11 06:13:56;;;;;;;;;;;23.90;99.90;;;;;;4879863;29;19919;-74
2022/04/11 06:16:23;;;;;;;;;;;23.80;99.90;;;;;;4879726;29;19919;-74
2022/04/11 06:18:50;;;;;;;;;;;23.80;99.90;;;;;;4879917;29;20370;-75
2022/04/11 06:21:16;;;;;;;;;;;23.70;99.90;;;;;;4879936;29;19912;-75
2022/04/11 06:23:43;;;;;;;;;;;23.60;99.90;;;;;;4879568;29;19946;-75
2022/04/11 06:26:09;;;;;;;;;;;23.60;99.90;;;;;;4879698;29;19912;-74
2022/04/11 06:28:36;;;;;;;;;;;23.60;99.90;;;;;;4879819;29;19984;-75
2022/04/11 06:31:03;;;;;;;;;;;23.50;99.90;;;;;;4875026;29;19923;-75
2022/04/11 06:33:30;;;;;;;;;;;23.40;99.90;;;;;;4860837;29;19948;-75
2022/04/11 06:35:56;;;;;;;;;;;23.30;99.90;;;;;;4861054;29;19995;-75
2022/04/11 06:38:23;;;;;;;;;;;23.30;99.90;;;;;;4860477;29;19920;-74
2022/04/11 06:40:50;;;;;;;;;;;23.20;99.90;;;;;;4861128;29;20379;-74
2022/04/11 06:43:16;;;;;;;;;;;23.10;99.90;;;;;;4861086;29;19916;-74
2022/04/11 06:45:43;;;;;;;;;;;23.10;99.90;;;;;;4860654;29;19912;-75
2022/04/11 06:48:10;;;;;;;;;;;23.10;99.90;;;;;;4861021;29;20333;-75
2022/04/11 06:50:36;;;;;;;;;;;23.00;99.90;;;;;;4860552;29;20325;-75
2022/04/11 06:53:03;;;;;;;;;;;23.00;99.90;;;;;;4858106;29;20308;-74
2022/04/11 06:55:30;;;;;;;;;;;22.90;99.90;;;;;;4858701;29;20291;-74
2022/04/11 06:57:56;;;;;;;;;;;22.90;99.90;;;;;;4858745;29;20006;-75
2022/04/11 07:00:23;;;;;;;;;;;22.90;99.90;;;;;;4862719;29;19963;-75
2022/04/11 07:02:50;;;;;;;;;;;22.80;99.90;;;;;;4864335;29;19972;-75
2022/04/11 07:05:16;;;;;;;;;;;22.90;99.90;;;;;;4864195;29;19916;-74
2022/04/11 07:07:43;;;;;;;;;;;22.80;99.90;;;;;;4864727;29;19950;-75
2022/04/11 07:10:10;;;;;;;;;;;22.80;99.90;;;;;;4864796;29;19912;-75
2022/04/11 07:12:40;;;;;;;;;;;22.70;99.90;;;;;;4864879;29;19968;-75
2022/04/11 07:15:07;;;;;;;;;;;22.60;99.90;;;;;;4864736;29;20348;-75
2022/04/11 07:17:33;;;;;;;;;;;22.60;99.90;;;;;;4864211;29;19920;-75
2022/04/11 07:20:01;;;;;;;;;;;22.60;99.90;;;;;;4864740;29;19998;-75
2022/04/11 07:22:27;;;;;;;;;;;22.60;99.90;;;;;;4864875;29;20011;-75
2022/04/11 07:24:54;;;;;;;;;;;22.50;99.90;;;;;;4864757;29;19916;-75
2022/04/11 07:27:21;;;;;;;;;;;22.50;99.90;;;;;;4864928;29;20369;-75
2022/04/11 07:29:47;;;;;;;;;;;22.50;99.90;;;;;;4864485;29;19938;-75
2022/04/11 07:32:14;;;;;;;;;;;22.50;99.90;;;;;;4864422;29;19920;-75
2022/04/11 07:34:41;;;;;;;;;;;22.50;99.90;;;;;;4864706;29;20022;-75
2022/04/11 07:37:07;;;;;;;;;;;22.50;99.90;;;;;;4864636;29;19963;-75
2022/04/11 07:39:34;;;;;;;;;;;22.40;99.90;;;;;;4864520;29;19916;-75
2022/04/11 07:42:01;;;;;;;;;;;22.40;99.90;;;;;;4864517;29;19980;-75
2022/04/11 07:44:28;;;;;;;;;;;22.40;99.90;;;;;;4864234;29;19912;-75
2022/04/11 07:46:54;;;;;;;;;;;22.30;99.90;;;;;;4864400;29;19916;-74
2022/04/11 07:49:21;;;;;;;;;;;22.40;99.90;;;;;;4864608;29;19920;-75
2022/04/11 07:51:48;;;;;;;;;;;22.30;99.90;;;;;;4864409;29;19916;-75
2022/04/11 07:54:14;;;;;;;;;;;22.40;99.90;;;;;;4864502;29;19935;-75
2022/04/11 07:56:41;;;;;;;;;;;22.30;99.90;;;;;;4863953;29;19934;-74
2022/04/11 07:59:07;;;;;;;;;;;22.30;99.90;;;;;;4864335;29;20007;-75
2022/04/11 08:01:34;;;;;;;;;;;22.20;99.90;;;;;;4864047;29;19968;-75
2022/04/11 08:04:01;;;;;;;;;;;22.10;99.90;;;;;;4864230;29;19928;-74
2022/04/11 08:06:27;;;;;;;;;;;22.10;99.90;;;;;;4864356;29;19916;-75
2022/04/11 08:08:54;;;;;;;;;;;22.10;99.90;;;;;;4864303;29;19916;-75
2022/04/11 08:11:21;;;;;;;;;;;22.10;99.90;;;;;;4861855;29;19916;-75
2022/04/11 08:13:48;;;;;;;;;;;22.00;99.90;;;;;;4861056;29;19919;-74
2022/04/11 08:16:14;;;;;;;;;;;22.10;99.90;;;;;;4861333;29;19912;-75
2022/04/11 08:18:41;;;;;;;;;;;22.00;99.90;;;;;;4861216;29;19928;-74
2022/04/11 08:21:08;;;;;;;;;;;22.00;99.90;;;;;;4861249;29;20309;-74
2022/04/11 08:23:34;;;;;;;;;;;21.90;99.90;;;;;;4860685;29;20012;-75
2022/04/11 08:26:01;;;;;;;;;;;21.90;99.90;;;;;;4861195;29;19920;-74
2022/04/11 08:28:28;;;;;;;;;;;21.90;99.90;;;;;;4861333;29;19916;-75
2022/04/11 08:30:54;;;;;;;;;;;21.90;99.90;;;;;;4861095;29;19916;-75
2022/04/11 08:33:21;;;;;;;;;;;21.90;99.90;;;;;;4861090;29;20024;-75
2022/04/11 08:35:48;;;;;;;;;;;21.90;99.90;;;;;;4860490;29;19932;-75
2022/04/11 08:38:14;;;;;;;;;;;21.90;99.90;;;;;;4860762;29;19920;-75
2022/04/11 08:40:50;;;;;;;;;;;21.80;99.90;;;;;;4860955;29;20014;-75
2022/04/11 08:43:20;;;;;;;;;;;21.80;99.90;;;;;;4861058;29;20376;-75
2022/04/11 08:45:47;;;;;;;;;;;21.80;99.90;;;;;;4860664;29;19916;-75
2022/04/11 08:48:13;;;;;;;;;;;21.70;99.90;;;;;;4860726;29;20288;-75
2022/04/11 08:50:40;;;;;;;;;;;21.80;99.90;;;;;;4860565;29;19922;-74
2022/04/11 08:53:07;;;;;;;;;;;21.70;99.90;;;;;;4860814;29;19919;-75
2022/04/11 08:55:34;;;;;;;;;;;21.70;99.90;;;;;;4860578;29;19935;-75
2022/04/11 08:58:01;;;;;;;;;;;21.80;99.90;;;;;;4860588;29;19928;-75
2022/04/11 09:00:28;;;;;;;;;;;21.80;99.90;;;;;;4860536;29;19920;-75
2022/04/11 09:02:55;;;;;;;;;;;21.80;99.90;;;;;;4860180;29;20400;-74
2022/04/11 09:05:23;;;;;;;;;;;21.80;99.90;;;;;;4861331;29;19912;-74
2022/04/11 09:07:51;;;;;;;;;;;21.80;99.90;;;;;;4862315;29;19996;-74
2022/04/11 09:10:19;;;;;;;;;;;21.80;99.90;;;;;;4862441;29;19912;-74
2022/04/11 09:12:50;;;;;;;;;;;21.80;99.90;;;;;;4862620;29;20336;-75
2022/04/11 09:15:17;;;;;;;;;;;21.80;99.90;;;;;;4862597;29;19912;-74
2022/04/11 09:17:44;;;;;;;;;;;21.70;99.90;;;;;;4862248;29;20010;-74
2022/04/11 09:20:15;;;;;;;;;;;21.70;99.90;;;;;;4862304;29;19917;-74
2022/04/11 09:22:42;;;;;;;;;;;21.70;99.90;;;;;;4861667;29;20002;-75
2022/04/11 09:25:10;;;;;;;;;;;21.70;99.90;;;;;;4862080;29;19912;-74
2022/04/11 09:27:36;;;;;;;;;;;21.60;99.90;;;;;;4862301;29;19912;-74
2022/04/11 09:30:23;;;;;;;;;;;21.70;99.90;;;;;;4861096;29;19949;-75
2022/04/11 09:32:54;;;;;;;;;;;21.60;99.90;;;;;;4862081;29;19919;-75
2022/04/11 09:35:21;;;;;;;;;;;21.60;99.90;;;;;;4862174;29;20003;-75
2022/04/11 09:37:48;;;;;;;;;;;21.60;99.90;;;;;;4861601;29;19920;-75
2022/04/11 09:40:21;;;;;;;;;;;21.60;99.90;;;;;;4862178;29;19918;-75
2022/04/11 09:42:57;;;;;;;;;;;21.60;99.90;;;;;;4862144;29;20364;-75
2022/04/11 09:45:24;;;;;;;;;;;21.60;99.90;;;;;;4861811;29;20353;-73
2022/04/11 09:48:04;;;;;;;;;;;21.60;99.90;;;;;;4861754;29;19964;-75
2022/04/11 09:50:31;;;;;;;;;;;21.60;99.90;;;;;;4861961;29;19916;-75
2022/04/11 09:53:08;;;;;;;;;;;21.60;99.90;;;;;;4861499;29;19913;-75
2022/04/11 09:55:35;;;;;;;;;;;21.60;99.90;;;;;;4861683;29;20313;-75
2022/04/11 09:58:03;;;;;;;;;;;21.50;99.90;;;;;;4861605;29;19920;-74
2022/04/11 10:00:30;;;;;;;;;;;21.60;99.90;;;;;;4861504;29;19912;-75
2022/04/11 10:02:59;;;;;;;;;;;21.50;99.90;;;;;;4861556;29;19946;-75
2022/04/11 10:05:26;;;;;;;;;;;21.50;99.90;;;;;;4861263;29;19966;-74
2022/04/11 10:07:54;;;;;;;;;;;21.50;99.90;;;;;;4861477;29;19912;-74
2022/04/11 10:10:22;;;;;;;;;;;21.50;99.90;;;;;;4861616;29;20313;-75
2022/04/11 10:12:49;;;;;;;;;;;21.40;99.90;;;;;;4861562;29;19967;-74
2022/04/11 10:15:15;;;;;;;;;;;21.30;99.90;;;;;;4861303;29;20280;-75
2022/04/11 10:17:42;;;;;;;;;;;21.30;99.90;;;;;;4861244;29;19989;-75
2022/04/11 10:20:09;;;;;;;;;;;21.20;99.90;;;;;;4861366;29;19913;-75
2022/04/11 10:22:40;;;;;;;;;;;21.20;99.90;;;;;;4861330;29;20424;-75
2022/04/11 10:25:07;;;;;;;;;;;21.20;99.90;;;;;;4861232;29;19912;-74
2022/04/11 10:27:37;;;;;;;;;;;21.10;99.90;;;;;;4861099;29;20438;-75
2022/04/11 10:30:23;;;;;;;;;;;21.10;99.90;;;;;;4861072;29;19912;-75
2022/04/11 10:32:55;;;;;;;;;;;21.10;99.90;;;;;;4861145;29;19912;-74
2022/04/11 10:35:34;;;;;;;;;;;21.10;99.90;;;;;;4860643;29;19920;-75
2022/04/11 10:38:01;;;;;;;;;;;21.10;99.90;;;;;;4861363;29;19924;-75
2022/04/11 10:40:28;;;;;;;;;;;21.10;99.90;;;;;;4861286;29;19912;-75
2022/04/11 10:43:01;;;;;;;;;;;21.10;99.90;;;;;;4861159;29;19912;-75
2022/04/11 10:45:31;;;;;;;;;;;21.10;99.90;;;;;;4860715;29;19916;-75
2022/04/11 10:47:58;;;;;;;;;;;21.10;99.90;;;;;;4861015;29;19920;-75
2022/04/11 10:50:26;;;;;;;;;;;21.10;99.90;;;;;;4861145;29;19912;-75
2022/04/11 10:53:06;;;;;;;;;;;21.10;99.90;;;;;;4860849;29;20019;-75
2022/04/11 10:55:32;;;;;;;;;;;21.10;99.90;;;;;;4860816;29;20374;-75
2022/04/11 10:58:02;;;;;;;;;;;21.10;99.90;;;;;;4860848;29;19923;-74
2022/04/11 11:00:34;;;;;;;;;;;21.10;99.90;;;;;;4859512;29;19929;-74
2022/04/11 11:03:02;;;;;;;;;;;21.10;99.90;;;;;;4860701;29;19931;-75
2022/04/11 11:05:29;;;;;;;;;;;21.10;99.90;;;;;;4860917;29;19912;-75
2022/04/11 11:08:09;;;;;;;;;;;21.10;99.90;;;;;;4860918;29;19960;-75
2022/04/11 11:10:44;;;;;;;;;;;21.10;99.90;;;;;;4860459;29;19913;-74
2022/04/11 11:13:32;;;;;;;;;;;21.10;99.90;;;;;;4860255;29;19964;-75
2022/04/11 11:15:59;;;;;;;;;;;21.10;99.90;;;;;;4860649;29;19912;-75
2022/04/11 11:18:26;;;;;;;;;;;21.00;99.90;;;;;;4860574;29;19921;-74
2022/04/11 11:20:54;;;;;;;;;;;21.00;99.90;;;;;;4860767;29;20010;-75
2022/04/11 11:23:31;;;;;;;;;;;21.10;99.90;;;;;;4860669;29;19912;-75
2022/04/11 11:26:08;;;;;;;;;;;21.00;99.90;;;;;;4860661;29;20284;-75
2022/04/11 11:28:35;;;;;;;;;;;21.10;99.90;;;;;;4860107;29;19999;-75
2022/04/11 11:31:03;;;;;;;;;;;21.00;99.90;;;;;;4860592;29;19944;-75
2022/04/11 11:33:30;;;;;;;;;;;21.00;99.90;;;;;;4860602;29;19963;-74
2022/04/11 11:35:56;;;;;;;;;;;20.90;99.90;;;;;;4860732;29;19920;-75
2022/04/11 11:38:23;;;;;;;;;;;20.90;99.90;;;;;;4860612;29;19945;-74
2022/04/11 11:40:53;;;;;;;;;;;20.90;99.90;;;;;;4860535;29;19958;-75
2022/04/11 11:43:20;;;;;;;;;;;20.90;99.90;;;;;;4859987;29;19924;-74
2022/04/11 11:45:48;;;;;;;;;;;20.90;99.90;;;;;;4860208;29;19913;-75
2022/04/11 11:48:24;;;;;;;;;;;20.90;99.90;;;;;;4863852;29;19912;-74
2022/04/11 11:50:55;;;;;;;;;;;20.90;99.90;;;;;;4863955;29;19920;-74
2022/04/11 11:53:22;;;;;;;;;;;21.00;99.90;;;;;;4863897;29;19913;-76
2022/04/11 11:55:59;;;;;;;;;;;20.90;99.90;;;;;;4862496;29;19912;-74
2022/04/11 11:58:35;;;;;;;;;;;20.90;99.90;;;;;;4863159;29;20050;-75
2022/04/11 12:01:02;;;;;;;;;;;20.70;99.90;;;;;;4863601;29;19912;-75
2022/04/11 12:06:22;;;;;;;;;;;20.60;99.90;;;;;;4864118;29;19976;-75
2022/04/11 12:09:01;;;;;;;;;;;20.50;99.90;;;;;;4863794;29;20013;-75
2022/04/11 12:11:29;;;;;;;;;;;20.40;99.90;;;;;;4862812;29;19972;-75
2022/04/11 12:14:00;;;;;;;;;;;20.40;99.90;;;;;;4863209;29;19912;-75
2022/04/11 12:16:29;;;;;;;;;;;20.30;99.90;;;;;;4863675;29;20002;-75
2022/04/11 12:18:56;;;;;;;;;;;20.30;99.90;;;;;;4863467;29;19952;-75
2022/04/11 12:21:37;;;;;;;;;;;20.20;99.90;;;;;;4863548;29;19913;-75
2022/04/11 12:24:05;;;;;;;;;;;20.20;99.90;;;;;;4863319;29;19912;-75
2022/04/11 12:26:39;;;;;;;;;;;20.10;99.90;;;;;;4862887;29;20199;-75
2022/04/11 12:29:38;;;;;;;;;;;20.10;99.90;;;;;;4863288;29;19912;-75
2022/04/11 12:32:10;;;;;;;;;;;20.10;99.90;;;;;;4863248;29;19912;-75
2022/04/11 12:34:38;;;;;;;;;;;20.10;99.90;;;;;;4861720;29;19991;-76
2022/04/11 12:37:08;;;;;;;;;;;20.10;99.90;;;;;;4863360;29;19919;-75
2022/04/11 12:39:54;;;;;;;;;;;20.20;99.90;;;;;;4862889;29;20309;-75
2022/04/11 12:42:22;;;;;;;;;;;20.20;99.90;;;;;;4862630;29;20356;-75
2022/04/11 12:44:49;;;;;;;;;;;20.20;99.90;;;;;;4863115;29;19923;-75
2022/04/11 12:47:15;;;;;;;;;;;20.20;99.90;;;;;;4862888;29;20308;-75
2022/04/11 12:49:53;;;;;;;;;;;20.30;99.90;;;;;;4862947;29;19912;-75
2022/04/11 12:52:21;;;;;;;;;;;20.20;99.90;;;;;;4863019;29;19918;-75
2022/04/11 12:55:08;;;;;;;;;;;20.30;99.90;;;;;;4862950;29;19935;-75
2022/04/11 12:57:37;;;;;;;;;;;20.30;99.90;;;;;;4860268;29;20357;-75
2022/04/11 13:00:13;;;;;;;;;;;20.30;99.90;;;;;;4862775;29;20011;-75
2022/04/11 13:02:40;;;;;;;;;;;20.30;99.90;;;;;;4862644;29;20007;-75
2022/04/11 13:05:13;;;;;;;;;;;20.20;99.90;;;;;;4862769;29;20321;-75
2022/04/11 13:07:40;;;;;;;;;;;20.20;99.90;;;;;;4862684;29;20011;-75
2022/04/11 13:10:07;;;;;;;;;;;20.10;99.90;;;;;;4862773;29;20414;-75
2022/04/11 13:12:34;;;;;;;;;;;19.90;99.90;;;;;;4862219;29;19918;-74
2022/04/11 13:15:00;;;;;;;;;;;19.70;99.90;;;;;;4862508;29;19912;-74
2022/04/11 13:20:14;;;;;;;;;;;19.50;99.90;;;;;;4862612;29;20009;-75
2022/04/11 13:22:41;;;;;;;;;;;19.40;99.90;;;;;;4862245;29;20447;-74
2022/04/11 13:25:08;;;;;;;;;;;19.30;99.90;;;;;;4862350;29;19912;-75
2022/04/11 13:27:34;;;;;;;;;;;19.30;99.90;;;;;;4861602;29;19960;-74
2022/04/11 13:30:01;;;;;;;;;;;19.20;99.90;;;;;;4862218;29;19962;-75
2022/04/11 13:32:28;;;;;;;;;;;19.10;99.90;;;;;;4862279;29;19922;-75
2022/04/11 13:34:54;;;;;;;;;;;19.10;99.90;;;;;;4862189;29;19912;-74
2022/04/11 13:37:21;;;;;;;;;;;19.00;99.90;;;;;;4864305;29;19928;-74
2022/04/11 13:39:47;;;;;;;;;;;19.00;99.90;;;;;;4868637;29;20320;-75
2022/04/11 13:42:14;;;;;;;;;;;18.90;99.90;;;;;;4861990;29;19920;-74
2022/04/11 13:44:41;;;;;;;;;;;18.90;99.90;;;;;;4861891;29;20283;-75
2022/04/11 13:47:10;;;;;;;;;;;18.90;99.90;;;;;;4862060;29;19919;-75
2022/04/11 13:49:37;;;;;;;;;;;18.90;99.90;;;;;;4862002;29;19912;-75
2022/04/11 13:52:04;;;;;;;;;;;18.90;99.90;;;;;;4861953;29;20316;-75
2022/04/11 13:54:31;;;;;;;;;;;19.00;99.90;;;;;;4861827;29;19938;-75
2022/04/11 13:56:58;;;;;;;;;;;18.90;99.90;;;;;;4845417;29;19912;-75
2022/04/11 13:59:25;;;;;;;;;;;18.90;99.90;;;;;;4861697;29;19916;-75
2022/04/11 14:01:53;;;;;;;;;;;18.90;99.90;;;;;;4861463;29;20029;-75
2022/04/11 14:04:24;;;;;;;;;;;18.90;99.90;;;;;;4861894;29;19916;-74
2022/04/11 14:06:50;;;;;;;;;;;18.90;99.90;;;;;;4861815;29;19912;-76
2022/04/11 14:09:17;;;;;;;;;;;18.80;99.90;;;;;;4861165;29;20360;-75
2022/04/11 14:11:45;;;;;;;;;;;18.90;99.90;;;;;;4861352;29;19920;-76
2022/04/11 14:14:12;;;;;;;;;;;18.80;99.90;;;;;;4861348;29;19981;-76
2022/04/11 14:16:39;;;;;;;;;;;18.80;99.90;;;;;;4861669;29;20412;-76
2022/04/11 14:19:05;;;;;;;;;;;18.80;99.90;;;;;;4844906;29;19943;-75
2022/04/11 14:21:32;;;;;;;;;;;18.80;99.90;;;;;;4861332;29;20257;-74
2022/04/11 14:23:58;;;;;;;;;;;18.70;99.90;;;;;;4861330;29;19912;-74
2022/04/11 14:26:25;;;;;;;;;;;18.70;99.90;;;;;;4861458;29;19912;-74